sensor_id;sensor_type;location;lat;lon;timestamp;P1;durP1;ratioP1;P2;durP2;ratioP2
22985;SDS011;11659;51.092;7.080;2022-12-07T00:00:28;18.10;;;12.60;;
22985;SDS011;11659;51.092;7.080;2022-12-07T00:02:54;18.17;;;12.80;;
22985;SDS011;11659;51.092;7.080;2022-12-07T00:05:21;16.90;;;13.10;;
22985;SDS011;11659;51.092;7.080;2022-12-07T00:07:47;18.77;;;12.73;;
22985;SDS011;11659;51.092;7.080;2022-12-07T00:10:14;16.73;;;13.17;;
22985;SDS011;11659;51.092;7.080;2022-12-07T00:12:41;17.13;;;13.00;;
22985;SDS011;11659;51.092;7.080;2022-12-07T00:15:07;19.83;;;13.67;;
22985;SDS011;11659;51.092;7.080;2022-12-07T00:17:35;18.37;;;12.30;;
22985;SDS011;11659;51.092;7.080;2022-12-07T00:20:01;18.33;;;12.63;;
22985;SDS011;11659;51.092;7.080;2022-12-07T00:22:27;17.00;;;12.57;;
22985;SDS011;11659;51.092;7.080;2022-12-07T00:24:53;17.47;;;12.93;;
22985;SDS011;11659;51.092;7.080;2022-12-07T00:27:19;19.07;;;13.60;;
22985;SDS011;11659;51.092;7.080;2022-12-07T00:29:45;17.60;;;13.33;;
22985;SDS011;11659;51.092;7.080;2022-12-07T00:32:10;18.63;;;13.73;;
22985;SDS011;11659;51.092;7.080;2022-12-07T00:34:38;18.90;;;13.60;;
22985;SDS011;11659;51.092;7.080;2022-12-07T00:37:04;21.97;;;13.87;;
22985;SDS011;11659;51.092;7.080;2022-12-07T00:39:30;19.93;;;13.30;;
22985;SDS011;11659;51.092;7.080;2022-12-07T00:41:56;20.70;;;14.17;;
22985;SDS011;11659;51.092;7.080;2022-12-07T00:44:22;19.03;;;13.30;;
22985;SDS011;11659;51.092;7.080;2022-12-07T00:46:48;20.77;;;13.90;;
22985;SDS011;11659;51.092;7.080;2022-12-07T00:49:13;20.47;;;13.60;;
22985;SDS011;11659;51.092;7.080;2022-12-07T00:51:41;19.87;;;13.97;;
22985;SDS011;11659;51.092;7.080;2022-12-07T00:54:07;19.27;;;13.50;;
22985;SDS011;11659;51.092;7.080;2022-12-07T00:56:33;19.13;;;13.77;;
22985;SDS011;11659;51.092;7.080;2022-12-07T00:58:59;20.17;;;14.00;;
22985;SDS011;11659;51.092;7.080;2022-12-07T01:01:27;16.87;;;13.20;;
22985;SDS011;11659;51.092;7.080;2022-12-07T01:03:55;22.27;;;14.70;;
22985;SDS011;11659;51.092;7.080;2022-12-07T01:06:22;19.83;;;13.97;;
22985;SDS011;11659;51.092;7.080;2022-12-07T01:08:51;19.20;;;13.60;;
22985;SDS011;11659;51.092;7.080;2022-12-07T01:11:19;20.47;;;13.70;;
22985;SDS011;11659;51.092;7.080;2022-12-07T01:13:46;19.37;;;13.80;;
22985;SDS011;11659;51.092;7.080;2022-12-07T01:16:15;17.30;;;13.30;;
22985;SDS011;11659;51.092;7.080;2022-12-07T01:18:42;19.13;;;14.10;;
22985;SDS011;11659;51.092;7.080;2022-12-07T01:21:13;19.00;;;13.70;;
22985;SDS011;11659;51.092;7.080;2022-12-07T01:23:40;17.80;;;13.10;;
22985;SDS011;11659;51.092;7.080;2022-12-07T01:26:09;19.60;;;13.90;;
22985;SDS011;11659;51.092;7.080;2022-12-07T01:28:37;17.63;;;13.57;;
22985;SDS011;11659;51.092;7.080;2022-12-07T01:31:05;17.80;;;13.90;;
22985;SDS011;11659;51.092;7.080;2022-12-07T01:33:32;21.67;;;14.03;;
22985;SDS011;11659;51.092;7.080;2022-12-07T01:36:00;19.60;;;14.13;;
22985;SDS011;11659;51.092;7.080;2022-12-07T01:38:27;23.27;;;14.37;;
22985;SDS011;11659;51.092;7.080;2022-12-07T01:40:56;21.33;;;14.77;;
22985;SDS011;11659;51.092;7.080;2022-12-07T01:43:25;21.53;;;15.27;;
22985;SDS011;11659;51.092;7.080;2022-12-07T01:45:53;18.50;;;13.90;;
22985;SDS011;11659;51.092;7.080;2022-12-07T01:48:20;22.00;;;14.60;;
22985;SDS011;11659;51.092;7.080;2022-12-07T01:50:50;18.90;;;13.87;;
22985;SDS011;11659;51.092;7.080;2022-12-07T01:53:18;18.27;;;13.60;;
22985;SDS011;11659;51.092;7.080;2022-12-07T01:55:45;19.37;;;13.80;;
22985;SDS011;11659;51.092;7.080;2022-12-07T01:58:15;20.70;;;13.87;;
22985;SDS011;11659;51.092;7.080;2022-12-07T02:00:43;20.37;;;13.60;;
22985;SDS011;11659;51.092;7.080;2022-12-07T02:03:10;20.07;;;14.60;;
22985;SDS011;11659;51.092;7.080;2022-12-07T02:05:41;18.70;;;13.87;;
22985;SDS011;11659;51.092;7.080;2022-12-07T02:08:08;19.20;;;13.80;;
22985;SDS011;11659;51.092;7.080;2022-12-07T02:10:36;19.33;;;13.73;;
22985;SDS011;11659;51.092;7.080;2022-12-07T02:13:03;20.30;;;14.30;;
22985;SDS011;11659;51.092;7.080;2022-12-07T02:15:34;20.73;;;14.23;;
22985;SDS011;11659;51.092;7.080;2022-12-07T02:18:13;21.17;;;15.17;;
22985;SDS011;11659;51.092;7.080;2022-12-07T02:20:48;20.13;;;14.53;;
22985;SDS011;11659;51.092;7.080;2022-12-07T02:29:11;18.67;;;14.03;;
22985;SDS011;11659;51.092;7.080;2022-12-07T02:31:43;20.33;;;14.63;;
22985;SDS011;11659;51.092;7.080;2022-12-07T02:34:16;21.03;;;14.60;;
22985;SDS011;11659;51.092;7.080;2022-12-07T02:36:50;21.10;;;15.27;;
22985;SDS011;11659;51.092;7.080;2022-12-07T02:39:23;20.60;;;14.20;;
22985;SDS011;11659;51.092;7.080;2022-12-07T02:41:56;23.17;;;15.93;;
22985;SDS011;11659;51.092;7.080;2022-12-07T02:44:26;20.27;;;15.60;;
22985;SDS011;11659;51.092;7.080;2022-12-07T02:46:54;25.40;;;17.10;;
22985;SDS011;11659;51.092;7.080;2022-12-07T02:49:23;20.90;;;14.97;;
22985;SDS011;11659;51.092;7.080;2022-12-07T02:51:51;23.23;;;15.53;;
22985;SDS011;11659;51.092;7.080;2022-12-07T02:54:18;25.37;;;16.73;;
22985;SDS011;11659;51.092;7.080;2022-12-07T02:56:48;21.73;;;16.10;;
22985;SDS011;11659;51.092;7.080;2022-12-07T02:59:17;24.63;;;16.43;;
22985;SDS011;11659;51.092;7.080;2022-12-07T03:01:56;22.47;;;16.53;;
22985;SDS011;11659;51.092;7.080;2022-12-07T03:04:33;22.13;;;16.17;;
22985;SDS011;11659;51.092;7.080;2022-12-07T03:07:10;22.60;;;15.60;;
22985;SDS011;11659;51.092;7.080;2022-12-07T03:09:44;23.40;;;16.03;;
22985;SDS011;11659;51.092;7.080;2022-12-07T03:12:18;22.77;;;15.83;;
22985;SDS011;11659;51.092;7.080;2022-12-07T03:14:57;23.03;;;15.97;;
22985;SDS011;11659;51.092;7.080;2022-12-07T03:17:28;22.13;;;15.23;;
22985;SDS011;11659;51.092;7.080;2022-12-07T03:19:58;22.03;;;15.90;;
22985;SDS011;11659;51.092;7.080;2022-12-07T03:22:28;22.57;;;16.10;;
22985;SDS011;11659;51.092;7.080;2022-12-07T03:24:57;21.90;;;15.40;;
22985;SDS011;11659;51.092;7.080;2022-12-07T03:27:26;21.87;;;16.07;;
22985;SDS011;11659;51.092;7.080;2022-12-07T03:29:58;22.93;;;16.27;;
22985;SDS011;11659;51.092;7.080;2022-12-07T03:32:31;23.27;;;16.70;;
22985;SDS011;11659;51.092;7.080;2022-12-07T03:35:03;19.23;;;14.47;;
22985;SDS011;11659;51.092;7.080;2022-12-07T03:37:33;21.50;;;15.67;;
22985;SDS011;11659;51.092;7.080;2022-12-07T03:40:03;22.73;;;15.87;;
22985;SDS011;11659;51.092;7.080;2022-12-07T03:42:34;19.17;;;15.33;;
22985;SDS011;11659;51.092;7.080;2022-12-07T03:45:00;23.30;;;15.90;;
22985;SDS011;11659;51.092;7.080;2022-12-07T03:47:29;22.87;;;15.90;;
22985;SDS011;11659;51.092;7.080;2022-12-07T03:50:00;19.47;;;14.40;;
22985;SDS011;11659;51.092;7.080;2022-12-07T03:52:33;21.00;;;15.03;;
22985;SDS011;11659;51.092;7.080;2022-12-07T03:55:05;20.70;;;14.90;;
22985;SDS011;11659;51.092;7.080;2022-12-07T03:57:35;19.23;;;14.00;;
22985;SDS011;11659;51.092;7.080;2022-12-07T04:00:05;20.20;;;14.40;;
22985;SDS011;11659;51.092;7.080;2022-12-07T04:02:39;19.23;;;14.60;;
22985;SDS011;11659;51.092;7.080;2022-12-07T04:05:06;19.90;;;14.60;;
22985;SDS011;11659;51.092;7.080;2022-12-07T04:07:33;19.87;;;14.60;;
22985;SDS011;11659;51.092;7.080;2022-12-07T04:09:59;19.13;;;14.30;;
22985;SDS011;11659;51.092;7.080;2022-12-07T04:12:25;20.83;;;14.40;;
22985;SDS011;11659;51.092;7.080;2022-12-07T04:14:50;20.17;;;15.67;;
22985;SDS011;11659;51.092;7.080;2022-12-07T04:17:16;22.13;;;15.80;;
22985;SDS011;11659;51.092;7.080;2022-12-07T04:19:44;20.17;;;14.90;;
22985;SDS011;11659;51.092;7.080;2022-12-07T04:22:10;21.03;;;14.90;;
22985;SDS011;11659;51.092;7.080;2022-12-07T04:24:36;19.43;;;14.67;;
22985;SDS011;11659;51.092;7.080;2022-12-07T04:27:02;18.23;;;14.23;;
22985;SDS011;11659;51.092;7.080;2022-12-07T04:29:27;18.57;;;13.97;;
22985;SDS011;11659;51.092;7.080;2022-12-07T04:31:53;19.70;;;13.60;;
22985;SDS011;11659;51.092;7.080;2022-12-07T04:34:19;18.53;;;13.90;;
22985;SDS011;11659;51.092;7.080;2022-12-07T04:36:47;18.27;;;13.63;;
22985;SDS011;11659;51.092;7.080;2022-12-07T04:39:19;17.73;;;13.83;;
22985;SDS011;11659;51.092;7.080;2022-12-07T04:41:47;17.63;;;13.40;;
22985;SDS011;11659;51.092;7.080;2022-12-07T04:44:13;17.57;;;13.17;;
22985;SDS011;11659;51.092;7.080;2022-12-07T04:46:40;19.13;;;13.50;;
22985;SDS011;11659;51.092;7.080;2022-12-07T04:49:06;18.10;;;13.97;;
22985;SDS011;11659;51.092;7.080;2022-12-07T04:51:33;17.37;;;12.60;;
22985;SDS011;11659;51.092;7.080;2022-12-07T04:54:00;16.47;;;13.10;;
22985;SDS011;11659;51.092;7.080;2022-12-07T04:56:26;19.10;;;12.77;;
22985;SDS011;11659;51.092;7.080;2022-12-07T04:58:53;16.43;;;12.73;;
22985;SDS011;11659;51.092;7.080;2022-12-07T05:01:20;19.90;;;14.07;;
22985;SDS011;11659;51.092;7.080;2022-12-07T05:03:46;17.83;;;13.60;;
22985;SDS011;11659;51.092;7.080;2022-12-07T05:06:12;19.00;;;13.27;;
22985;SDS011;11659;51.092;7.080;2022-12-07T05:08:39;16.90;;;13.40;;
22985;SDS011;11659;51.092;7.080;2022-12-07T05:11:07;16.93;;;13.03;;
22985;SDS011;11659;51.092;7.080;2022-12-07T05:13:34;17.00;;;13.10;;
22985;SDS011;11659;51.092;7.080;2022-12-07T05:16:01;16.37;;;12.13;;
22985;SDS011;11659;51.092;7.080;2022-12-07T05:18:27;15.80;;;12.77;;
22985;SDS011;11659;51.092;7.080;2022-12-07T05:20:53;17.37;;;12.13;;
22985;SDS011;11659;51.092;7.080;2022-12-07T05:23:19;16.37;;;12.50;;
22985;SDS011;11659;51.092;7.080;2022-12-07T05:25:46;15.47;;;12.20;;
22985;SDS011;11659;51.092;7.080;2022-12-07T05:28:14;17.13;;;12.83;;
22985;SDS011;11659;51.092;7.080;2022-12-07T05:30:40;17.00;;;12.73;;
22985;SDS011;11659;51.092;7.080;2022-12-07T05:33:06;16.60;;;13.17;;
22985;SDS011;11659;51.092;7.080;2022-12-07T05:35:32;15.30;;;12.87;;
22985;SDS011;11659;51.092;7.080;2022-12-07T05:37:58;13.77;;;11.50;;
22985;SDS011;11659;51.092;7.080;2022-12-07T05:40:24;17.50;;;11.77;;
22985;SDS011;11659;51.092;7.080;2022-12-07T05:42:50;13.87;;;11.23;;
22985;SDS011;11659;51.092;7.080;2022-12-07T05:45:17;14.50;;;11.23;;
22985;SDS011;11659;51.092;7.080;2022-12-07T05:47:43;13.90;;;10.90;;
22985;SDS011;11659;51.092;7.080;2022-12-07T05:50:09;14.30;;;11.13;;
22985;SDS011;11659;51.092;7.080;2022-12-07T05:52:35;14.33;;;11.30;;
22985;SDS011;11659;51.092;7.080;2022-12-07T05:55:01;14.90;;;11.50;;
22985;SDS011;11659;51.092;7.080;2022-12-07T05:57:27;16.83;;;11.63;;
22985;SDS011;11659;51.092;7.080;2022-12-07T05:59:53;16.53;;;11.77;;
22985;SDS011;11659;51.092;7.080;2022-12-07T06:02:20;13.87;;;11.47;;
22985;SDS011;11659;51.092;7.080;2022-12-07T06:04:46;13.87;;;11.40;;
22985;SDS011;11659;51.092;7.080;2022-12-07T06:07:13;15.33;;;11.80;;
22985;SDS011;11659;51.092;7.080;2022-12-07T06:09:40;16.03;;;11.50;;
22985;SDS011;11659;51.092;7.080;2022-12-07T06:12:15;13.83;;;10.80;;
22985;SDS011;11659;51.092;7.080;2022-12-07T06:14:58;13.50;;;10.53;;
22985;SDS011;11659;51.092;7.080;2022-12-07T06:17:26;15.57;;;11.80;;
22985;SDS011;11659;51.092;7.080;2022-12-07T06:19:52;14.10;;;10.80;;
22985;SDS011;11659;51.092;7.080;2022-12-07T06:22:18;13.83;;;10.87;;
22985;SDS011;11659;51.092;7.080;2022-12-07T06:24:44;14.03;;;10.80;;
22985;SDS011;11659;51.092;7.080;2022-12-07T06:27:10;14.97;;;11.00;;
22985;SDS011;11659;51.092;7.080;2022-12-07T06:29:36;13.33;;;10.70;;
22985;SDS011;11659;51.092;7.080;2022-12-07T06:32:02;14.93;;;11.47;;
22985;SDS011;11659;51.092;7.080;2022-12-07T06:34:33;12.47;;;10.53;;
22985;SDS011;11659;51.092;7.080;2022-12-07T06:36:59;15.67;;;11.07;;
22985;SDS011;11659;51.092;7.080;2022-12-07T06:39:26;15.87;;;11.70;;
22985;SDS011;11659;51.092;7.080;2022-12-07T06:41:53;13.70;;;10.67;;
22985;SDS011;11659;51.092;7.080;2022-12-07T06:44:19;13.03;;;10.50;;
22985;SDS011;11659;51.092;7.080;2022-12-07T06:46:46;13.00;;;10.30;;
22985;SDS011;11659;51.092;7.080;2022-12-07T06:49:13;17.80;;;11.00;;
22985;SDS011;11659;51.092;7.080;2022-12-07T06:51:40;13.27;;;10.47;;
22985;SDS011;11659;51.092;7.080;2022-12-07T06:54:07;16.33;;;10.43;;
22985;SDS011;11659;51.092;7.080;2022-12-07T06:56:33;13.07;;;9.50;;
22985;SDS011;11659;51.092;7.080;2022-12-07T06:58:59;11.67;;;9.23;;
22985;SDS011;11659;51.092;7.080;2022-12-07T07:01:28;11.73;;;8.90;;
22985;SDS011;11659;51.092;7.080;2022-12-07T07:03:54;13.00;;;9.07;;
22985;SDS011;11659;51.092;7.080;2022-12-07T07:06:20;13.33;;;9.63;;
22985;SDS011;11659;51.092;7.080;2022-12-07T07:08:47;11.63;;;9.03;;
22985;SDS011;11659;51.092;7.080;2022-12-07T07:11:13;11.03;;;9.03;;
22985;SDS011;11659;51.092;7.080;2022-12-07T07:13:39;12.63;;;8.40;;
22985;SDS011;11659;51.092;7.080;2022-12-07T07:16:05;12.47;;;8.87;;
22985;SDS011;11659;51.092;7.080;2022-12-07T07:18:32;14.17;;;9.40;;
22985;SDS011;11659;51.092;7.080;2022-12-07T07:20:58;10.93;;;9.07;;
22985;SDS011;11659;51.092;7.080;2022-12-07T07:23:24;12.17;;;8.17;;
22985;SDS011;11659;51.092;7.080;2022-12-07T07:25:51;13.23;;;8.50;;
22985;SDS011;11659;51.092;7.080;2022-12-07T07:28:17;11.37;;;8.43;;
22985;SDS011;11659;51.092;7.080;2022-12-07T07:30:44;11.03;;;7.97;;
22985;SDS011;11659;51.092;7.080;2022-12-07T07:33:10;11.67;;;9.03;;
22985;SDS011;11659;51.092;7.080;2022-12-07T07:35:37;11.10;;;8.53;;
22985;SDS011;11659;51.092;7.080;2022-12-07T07:38:04;12.03;;;9.30;;
22985;SDS011;11659;51.092;7.080;2022-12-07T07:40:30;11.23;;;9.03;;
22985;SDS011;11659;51.092;7.080;2022-12-07T07:42:58;12.03;;;8.80;;
22985;SDS011;11659;51.092;7.080;2022-12-07T07:45:24;10.10;;;8.37;;
22985;SDS011;11659;51.092;7.080;2022-12-07T07:47:51;12.03;;;9.80;;
22985;SDS011;11659;51.092;7.080;2022-12-07T07:50:17;13.67;;;9.73;;
22985;SDS011;11659;51.092;7.080;2022-12-07T07:52:43;13.57;;;9.93;;
22985;SDS011;11659;51.092;7.080;2022-12-07T07:55:29;13.83;;;9.87;;
22985;SDS011;11659;51.092;7.080;2022-12-07T07:57:55;11.93;;;9.90;;
22985;SDS011;11659;51.092;7.080;2022-12-07T08:00:23;11.53;;;9.30;;
22985;SDS011;11659;51.092;7.080;2022-12-07T08:02:49;14.20;;;10.50;;
22985;SDS011;11659;51.092;7.080;2022-12-07T08:05:15;12.57;;;9.77;;
22985;SDS011;11659;51.092;7.080;2022-12-07T08:07:41;13.17;;;9.83;;
22985;SDS011;11659;51.092;7.080;2022-12-07T08:10:08;13.30;;;10.20;;
22985;SDS011;11659;51.092;7.080;2022-12-07T08:12:37;15.13;;;10.87;;
22985;SDS011;11659;51.092;7.080;2022-12-07T08:15:26;14.40;;;10.50;;
22985;SDS011;11659;51.092;7.080;2022-12-07T08:17:52;14.67;;;11.40;;
22985;SDS011;11659;51.092;7.080;2022-12-07T08:20:19;17.80;;;12.47;;
22985;SDS011;11659;51.092;7.080;2022-12-07T08:22:45;22.00;;;14.73;;
22985;SDS011;11659;51.092;7.080;2022-12-07T08:25:11;26.07;;;16.83;;
22985;SDS011;11659;51.092;7.080;2022-12-07T08:27:37;42.60;;;25.60;;
22985;SDS011;11659;51.092;7.080;2022-12-07T08:30:03;44.23;;;25.57;;
22985;SDS011;11659;51.092;7.080;2022-12-07T08:32:31;39.53;;;23.90;;
22985;SDS011;11659;51.092;7.080;2022-12-07T08:34:57;42.90;;;25.07;;
22985;SDS011;11659;51.092;7.080;2022-12-07T08:37:22;46.53;;;28.53;;
22985;SDS011;11659;51.092;7.080;2022-12-07T08:39:48;58.87;;;35.70;;
22985;SDS011;11659;51.092;7.080;2022-12-07T08:42:14;51.77;;;31.47;;
22985;SDS011;11659;51.092;7.080;2022-12-07T08:44:40;34.10;;;23.07;;
22985;SDS011;11659;51.092;7.080;2022-12-07T08:47:06;31.03;;;21.33;;
22985;SDS011;11659;51.092;7.080;2022-12-07T08:49:38;26.27;;;18.77;;
22985;SDS011;11659;51.092;7.080;2022-12-07T08:52:06;21.43;;;15.77;;
22985;SDS011;11659;51.092;7.080;2022-12-07T08:54:33;20.23;;;14.77;;
22985;SDS011;11659;51.092;7.080;2022-12-07T08:57:01;18.63;;;13.37;;
22985;SDS011;11659;51.092;7.080;2022-12-07T08:59:28;29.57;;;19.37;;
22985;SDS011;11659;51.092;7.080;2022-12-07T09:01:54;34.03;;;23.90;;
22985;SDS011;11659;51.092;7.080;2022-12-07T09:04:20;30.87;;;19.87;;
22985;SDS011;11659;51.092;7.080;2022-12-07T09:06:47;27.00;;;17.93;;
22985;SDS011;11659;51.092;7.080;2022-12-07T09:09:14;22.60;;;15.47;;
22985;SDS011;11659;51.092;7.080;2022-12-07T09:11:40;26.47;;;17.47;;
22985;SDS011;11659;51.092;7.080;2022-12-07T09:14:06;27.90;;;18.63;;
22985;SDS011;11659;51.092;7.080;2022-12-07T09:16:32;31.63;;;19.63;;
22985;SDS011;11659;51.092;7.080;2022-12-07T09:18:57;39.00;;;23.87;;
22985;SDS011;11659;51.092;7.080;2022-12-07T09:21:23;36.93;;;23.20;;
22985;SDS011;11659;51.092;7.080;2022-12-07T09:23:51;31.67;;;21.80;;
22985;SDS011;11659;51.092;7.080;2022-12-07T09:26:17;25.60;;;17.77;;
22985;SDS011;11659;51.092;7.080;2022-12-07T09:28:42;20.77;;;14.93;;
22985;SDS011;11659;51.092;7.080;2022-12-07T09:31:08;19.33;;;13.30;;
22985;SDS011;11659;51.092;7.080;2022-12-07T09:33:34;18.03;;;13.17;;
22985;SDS011;11659;51.092;7.080;2022-12-07T09:36:00;18.33;;;13.13;;
22985;SDS011;11659;51.092;7.080;2022-12-07T09:38:27;16.77;;;12.03;;
22985;SDS011;11659;51.092;7.080;2022-12-07T09:40:56;14.90;;;11.53;;
22985;SDS011;11659;51.092;7.080;2022-12-07T09:43:22;15.97;;;11.93;;
22985;SDS011;11659;51.092;7.080;2022-12-07T09:45:51;14.30;;;11.27;;
22985;SDS011;11659;51.092;7.080;2022-12-07T09:48:21;17.10;;;12.10;;
22985;SDS011;11659;51.092;7.080;2022-12-07T09:50:49;15.27;;;11.87;;
22985;SDS011;11659;51.092;7.080;2022-12-07T09:53:18;14.47;;;10.83;;
22985;SDS011;11659;51.092;7.080;2022-12-07T09:55:49;17.90;;;12.10;;
22985;SDS011;11659;51.092;7.080;2022-12-07T09:58:19;15.50;;;11.87;;
22985;SDS011;11659;51.092;7.080;2022-12-07T10:00:48;18.30;;;12.30;;
22985;SDS011;11659;51.092;7.080;2022-12-07T10:03:15;15.77;;;12.27;;
22985;SDS011;11659;51.092;7.080;2022-12-07T10:05:42;15.13;;;11.03;;
22985;SDS011;11659;51.092;7.080;2022-12-07T10:08:12;15.77;;;11.67;;
22985;SDS011;11659;51.092;7.080;2022-12-07T10:10:41;16.67;;;12.07;;
22985;SDS011;11659;51.092;7.080;2022-12-07T10:13:08;14.53;;;11.70;;
22985;SDS011;11659;51.092;7.080;2022-12-07T10:15:44;13.60;;;11.17;;
22985;SDS011;11659;51.092;7.080;2022-12-07T10:18:21;13.60;;;10.90;;
22985;SDS011;11659;51.092;7.080;2022-12-07T10:20:59;16.73;;;11.90;;
22985;SDS011;11659;51.092;7.080;2022-12-07T10:23:27;16.70;;;11.67;;
22985;SDS011;11659;51.092;7.080;2022-12-07T10:25:53;15.53;;;11.83;;
22985;SDS011;11659;51.092;7.080;2022-12-07T10:28:20;14.63;;;10.70;;
22985;SDS011;11659;51.092;7.080;2022-12-07T10:30:53;14.53;;;10.57;;
22985;SDS011;11659;51.092;7.080;2022-12-07T10:36:16;14.90;;;10.60;;
22985;SDS011;11659;51.092;7.080;2022-12-07T10:38:45;13.43;;;10.70;;
22985;SDS011;11659;51.092;7.080;2022-12-07T10:41:12;12.87;;;9.97;;
22985;SDS011;11659;51.092;7.080;2022-12-07T10:43:47;15.43;;;10.40;;
22985;SDS011;11659;51.092;7.080;2022-12-07T10:46:22;13.30;;;10.40;;
22985;SDS011;11659;51.092;7.080;2022-12-07T10:49:14;13.57;;;9.87;;
22985;SDS011;11659;51.092;7.080;2022-12-07T10:52:03;11.73;;;9.17;;
22985;SDS011;11659;51.092;7.080;2022-12-07T10:54:39;14.30;;;9.77;;
22985;SDS011;11659;51.092;7.080;2022-12-07T10:57:20;13.10;;;9.27;;
22985;SDS011;11659;51.092;7.080;2022-12-07T11:00:04;17.47;;;12.23;;
22985;SDS011;11659;51.092;7.080;2022-12-07T11:02:40;15.97;;;11.60;;
22985;SDS011;11659;51.092;7.080;2022-12-07T11:05:22;14.30;;;10.17;;
22985;SDS011;11659;51.092;7.080;2022-12-07T11:07:56;12.77;;;9.80;;
22985;SDS011;11659;51.092;7.080;2022-12-07T11:10:29;14.83;;;10.20;;
22985;SDS011;11659;51.092;7.080;2022-12-07T11:13:11;17.03;;;11.70;;
22985;SDS011;11659;51.092;7.080;2022-12-07T11:15:52;21.77;;;13.83;;
22985;SDS011;11659;51.092;7.080;2022-12-07T11:18:48;20.80;;;13.63;;
22985;SDS011;11659;51.092;7.080;2022-12-07T11:21:26;18.90;;;13.07;;
22985;SDS011;11659;51.092;7.080;2022-12-07T11:23:56;18.23;;;12.77;;
22985;SDS011;11659;51.092;7.080;2022-12-07T11:26:34;13.37;;;10.30;;
22985;SDS011;11659;51.092;7.080;2022-12-07T11:29:16;13.03;;;9.27;;
22985;SDS011;11659;51.092;7.080;2022-12-07T11:31:56;13.73;;;10.07;;
22985;SDS011;11659;51.092;7.080;2022-12-07T11:34:33;11.20;;;7.93;;
22985;SDS011;11659;51.092;7.080;2022-12-07T11:37:05;13.03;;;8.37;;
22985;SDS011;11659;51.092;7.080;2022-12-07T11:39:39;10.73;;;7.67;;
22985;SDS011;11659;51.092;7.080;2022-12-07T11:42:09;12.47;;;7.40;;
22985;SDS011;11659;51.092;7.080;2022-12-07T11:44:44;12.73;;;7.23;;
22985;SDS011;11659;51.092;7.080;2022-12-07T11:47:18;9.43;;;7.13;;
22985;SDS011;11659;51.092;7.080;2022-12-07T11:49:53;9.67;;;7.23;;
22985;SDS011;11659;51.092;7.080;2022-12-07T11:52:22;8.63;;;6.87;;
22985;SDS011;11659;51.092;7.080;2022-12-07T11:54:56;8.40;;;6.27;;
22985;SDS011;11659;51.092;7.080;2022-12-07T11:57:25;10.80;;;6.67;;
22985;SDS011;11659;51.092;7.080;2022-12-07T11:59:59;11.03;;;7.33;;
22985;SDS011;11659;51.092;7.080;2022-12-07T12:02:32;10.03;;;7.17;;
22985;SDS011;11659;51.092;7.080;2022-12-07T12:05:14;11.30;;;7.07;;
22985;SDS011;11659;51.092;7.080;2022-12-07T12:07:42;9.07;;;6.63;;
22985;SDS011;11659;51.092;7.080;2022-12-07T12:10:16;8.40;;;6.57;;
22985;SDS011;11659;51.092;7.080;2022-12-07T12:12:54;11.63;;;7.20;;
22985;SDS011;11659;51.092;7.080;2022-12-07T12:15:37;11.97;;;7.40;;
22985;SDS011;11659;51.092;7.080;2022-12-07T12:18:30;11.20;;;6.43;;
22985;SDS011;11659;51.092;7.080;2022-12-07T12:21:21;9.17;;;5.90;;
22985;SDS011;11659;51.092;7.080;2022-12-07T12:23:55;8.87;;;6.47;;
22985;SDS011;11659;51.092;7.080;2022-12-07T12:26:24;8.20;;;5.60;;
22985;SDS011;11659;51.092;7.080;2022-12-07T12:28:54;7.30;;;5.20;;
22985;SDS011;11659;51.092;7.080;2022-12-07T12:31:32;8.00;;;5.80;;
22985;SDS011;11659;51.092;7.080;2022-12-07T12:34:19;8.80;;;6.23;;
22985;SDS011;11659;51.092;7.080;2022-12-07T12:36:59;8.00;;;5.60;;
22985;SDS011;11659;51.092;7.080;2022-12-07T12:39:25;8.07;;;5.40;;
22985;SDS011;11659;51.092;7.080;2022-12-07T12:41:52;6.43;;;5.23;;
22985;SDS011;11659;51.092;7.080;2022-12-07T12:44:39;7.20;;;4.83;;
22985;SDS011;11659;51.092;7.080;2022-12-07T12:47:40;6.67;;;4.57;;
22985;SDS011;11659;51.092;7.080;2022-12-07T12:50:18;7.63;;;4.60;;
22985;SDS011;11659;51.092;7.080;2022-12-07T12:52:58;7.83;;;4.80;;
22985;SDS011;11659;51.092;7.080;2022-12-07T12:55:46;7.80;;;5.60;;
22985;SDS011;11659;51.092;7.080;2022-12-07T12:58:30;6.83;;;4.93;;
22985;SDS011;11659;51.092;7.080;2022-12-07T13:04:02;7.20;;;5.37;;
22985;SDS011;11659;51.092;7.080;2022-12-07T13:06:40;7.07;;;4.97;;
22985;SDS011;11659;51.092;7.080;2022-12-07T13:09:15;7.80;;;5.07;;
22985;SDS011;11659;51.092;7.080;2022-12-07T13:11:46;5.47;;;4.57;;
22985;SDS011;11659;51.092;7.080;2022-12-07T13:17:09;7.00;;;5.00;;
22985;SDS011;11659;51.092;7.080;2022-12-07T13:22:41;9.63;;;5.53;;
22985;SDS011;11659;51.092;7.080;2022-12-07T13:25:22;8.07;;;5.70;;
22985;SDS011;11659;51.092;7.080;2022-12-07T13:27:56;7.93;;;5.23;;
22985;SDS011;11659;51.092;7.080;2022-12-07T13:30:26;7.63;;;4.87;;
22985;SDS011;11659;51.092;7.080;2022-12-07T13:32:54;8.47;;;5.00;;
22985;SDS011;11659;51.092;7.080;2022-12-07T13:35:28;7.50;;;4.63;;
22985;SDS011;11659;51.092;7.080;2022-12-07T13:37:55;5.93;;;4.67;;
22985;SDS011;11659;51.092;7.080;2022-12-07T13:40:23;12.63;;;8.10;;
22985;SDS011;11659;51.092;7.080;2022-12-07T13:42:56;11.33;;;7.57;;
22985;SDS011;11659;51.092;7.080;2022-12-07T13:45:24;11.83;;;8.03;;
22985;SDS011;11659;51.092;7.080;2022-12-07T13:48:10;10.83;;;7.83;;
22985;SDS011;11659;51.092;7.080;2022-12-07T13:50:41;8.70;;;6.40;;
22985;SDS011;11659;51.092;7.080;2022-12-07T13:53:10;7.73;;;5.90;;
22985;SDS011;11659;51.092;7.080;2022-12-07T13:55:39;8.23;;;5.33;;
22985;SDS011;11659;51.092;7.080;2022-12-07T13:58:10;7.83;;;4.70;;
22985;SDS011;11659;51.092;7.080;2022-12-07T14:00:36;8.03;;;5.37;;
22985;SDS011;11659;51.092;7.080;2022-12-07T14:03:03;7.03;;;4.60;;
22985;SDS011;11659;51.092;7.080;2022-12-07T14:05:44;11.27;;;6.57;;
22985;SDS011;11659;51.092;7.080;2022-12-07T14:08:21;13.00;;;7.37;;
22985;SDS011;11659;51.092;7.080;2022-12-07T14:10:54;10.20;;;6.30;;
22985;SDS011;11659;51.092;7.080;2022-12-07T14:13:25;7.23;;;5.33;;
22985;SDS011;11659;51.092;7.080;2022-12-07T14:15:54;10.87;;;5.50;;
22985;SDS011;11659;51.092;7.080;2022-12-07T14:18:25;6.67;;;4.70;;
22985;SDS011;11659;51.092;7.080;2022-12-07T14:21:02;7.27;;;4.10;;
22985;SDS011;11659;51.092;7.080;2022-12-07T14:23:29;6.90;;;3.97;;
22985;SDS011;11659;51.092;7.080;2022-12-07T14:26:04;8.27;;;4.33;;
22985;SDS011;11659;51.092;7.080;2022-12-07T14:28:42;5.27;;;3.63;;
22985;SDS011;11659;51.092;7.080;2022-12-07T14:31:10;7.27;;;4.70;;
22985;SDS011;11659;51.092;7.080;2022-12-07T14:33:38;5.37;;;4.13;;
22985;SDS011;11659;51.092;7.080;2022-12-07T14:36:04;9.00;;;4.77;;
22985;SDS011;11659;51.092;7.080;2022-12-07T14:38:30;6.53;;;4.37;;
22985;SDS011;11659;51.092;7.080;2022-12-07T14:40:56;6.77;;;4.40;;
22985;SDS011;11659;51.092;7.080;2022-12-07T14:43:44;7.60;;;4.37;;
22985;SDS011;11659;51.092;7.080;2022-12-07T14:46:10;6.30;;;4.40;;
22985;SDS011;11659;51.092;7.080;2022-12-07T14:48:35;7.27;;;4.53;;
22985;SDS011;11659;51.092;7.080;2022-12-07T14:51:01;8.63;;;5.07;;
22985;SDS011;11659;51.092;7.080;2022-12-07T14:53:30;7.90;;;4.57;;
22985;SDS011;11659;51.092;7.080;2022-12-07T14:56:00;6.17;;;4.70;;
22985;SDS011;11659;51.092;7.080;2022-12-07T14:58:26;8.43;;;5.13;;
22985;SDS011;11659;51.092;7.080;2022-12-07T15:00:54;7.83;;;5.10;;